sensor_id;sensor_type;location;lat;lon;timestamp;temperature;humidity
12436;DHT22;6282;51.440;6.938;2022-09-12T00:01:14;13.70;99.90
12436;DHT22;6282;51.440;6.938;2022-09-12T00:03:41;13.70;99.90
12436;DHT22;6282;51.440;6.938;2022-09-12T00:06:10;13.60;99.90
12436;DHT22;6282;51.440;6.938;2022-09-12T00:08:37;13.70;99.90
12436;DHT22;6282;51.440;6.938;2022-09-12T00:11:07;13.70;99.90
12436;DHT22;6282;51.440;6.938;2022-09-12T00:13:35;13.60;99.90
12436;DHT22;6282;51.440;6.938;2022-09-12T00:16:03;13.50;99.90
12436;DHT22;6282;51.440;6.938;2022-09-12T00:18:30;13.60;99.90
12436;DHT22;6282;51.440;6.938;2022-09-12T00:21:01;13.60;99.90
12436;DHT22;6282;51.440;6.938;2022-09-12T00:23:28;13.60;99.90
12436;DHT22;6282;51.440;6.938;2022-09-12T00:25:55;13.60;99.90
12436;DHT22;6282;51.440;6.938;2022-09-12T00:28:22;13.60;99.90
12436;DHT22;6282;51.440;6.938;2022-09-12T00:30:50;13.50;99.90
12436;DHT22;6282;51.440;6.938;2022-09-12T00:33:17;13.40;99.90
12436;DHT22;6282;51.440;6.938;2022-09-12T00:35:45;13.50;99.90
12436;DHT22;6282;51.440;6.938;2022-09-12T00:38:12;13.30;99.90
12436;DHT22;6282;51.440;6.938;2022-09-12T00:40:40;13.30;99.90
12436;DHT22;6282;51.440;6.938;2022-09-12T00:43:11;13.30;99.90
12436;DHT22;6282;51.440;6.938;2022-09-12T00:45:40;13.20;99.90
12436;DHT22;6282;51.440;6.938;2022-09-12T00:48:17;13.10;99.90
12436;DHT22;6282;51.440;6.938;2022-09-12T00:50:47;13.30;99.90
12436;DHT22;6282;51.440;6.938;2022-09-12T00:53:15;13.30;99.90
12436;DHT22;6282;51.440;6.938;2022-09-12T00:55:45;13.50;99.90
12436;DHT22;6282;51.440;6.938;2022-09-12T00:58:17;13.30;99.90
12436;DHT22;6282;51.440;6.938;2022-09-12T01:00:45;13.20;99.90
12436;DHT22;6282;51.440;6.938;2022-09-12T01:03:16;13.30;99.90
12436;DHT22;6282;51.440;6.938;2022-09-12T01:05:49;13.20;99.90
12436;DHT22;6282;51.440;6.938;2022-09-12T01:08:19;13.30;99.90
12436;DHT22;6282;51.440;6.938;2022-09-12T01:10:46;13.30;99.90
12436;DHT22;6282;51.440;6.938;2022-09-12T01:13:14;13.10;99.90
12436;DHT22;6282;51.440;6.938;2022-09-12T01:15:41;13.10;99.90
12436;DHT22;6282;51.440;6.938;2022-09-12T01:18:15;13.10;99.90
12436;DHT22;6282;51.440;6.938;2022-09-12T01:21:04;13.20;99.90
12436;DHT22;6282;51.440;6.938;2022-09-12T01:24:11;13.10;99.90
12436;DHT22;6282;51.440;6.938;2022-09-12T01:27:00;13.10;99.90
12436;DHT22;6282;51.440;6.938;2022-09-12T01:30:16;13.20;99.90
12436;DHT22;6282;51.440;6.938;2022-09-12T01:36:29;13.00;99.90
12436;DHT22;6282;51.440;6.938;2022-09-12T01:39:01;13.00;99.90
12436;DHT22;6282;51.440;6.938;2022-09-12T01:41:35;13.20;99.90
12436;DHT22;6282;51.440;6.938;2022-09-12T01:44:12;13.20;99.90
12436;DHT22;6282;51.440;6.938;2022-09-12T01:46:44;13.20;99.90
12436;DHT22;6282;51.440;6.938;2022-09-12T01:49:17;13.30;99.90
12436;DHT22;6282;51.440;6.938;2022-09-12T01:51:53;13.10;99.90
12436;DHT22;6282;51.440;6.938;2022-09-12T01:54:25;13.20;99.90
12436;DHT22;6282;51.440;6.938;2022-09-12T01:56:55;13.10;99.90
12436;DHT22;6282;51.440;6.938;2022-09-12T01:59:25;13.10;99.90
12436;DHT22;6282;51.440;6.938;2022-09-12T02:02:00;13.10;99.90
12436;DHT22;6282;51.440;6.938;2022-09-12T02:04:29;13.10;99.90
12436;DHT22;6282;51.440;6.938;2022-09-12T02:07:01;13.10;99.90
12436;DHT22;6282;51.440;6.938;2022-09-12T02:09:38;13.10;99.90
12436;DHT22;6282;51.440;6.938;2022-09-12T02:12:09;13.20;99.90
12436;DHT22;6282;51.440;6.938;2022-09-12T02:14:41;13.10;99.90
12436;DHT22;6282;51.440;6.938;2022-09-12T02:17:13;13.10;99.90
12436;DHT22;6282;51.440;6.938;2022-09-12T02:19:45;13.00;99.90
12436;DHT22;6282;51.440;6.938;2022-09-12T02:22:16;13.10;99.90
12436;DHT22;6282;51.440;6.938;2022-09-12T02:24:46;13.00;99.90
12436;DHT22;6282;51.440;6.938;2022-09-12T02:27:15;13.20;99.90
12436;DHT22;6282;51.440;6.938;2022-09-12T02:29:43;13.10;99.90
12436;DHT22;6282;51.440;6.938;2022-09-12T02:32:15;13.00;99.90
12436;DHT22;6282;51.440;6.938;2022-09-12T02:34:53;13.10;99.90
12436;DHT22;6282;51.440;6.938;2022-09-12T02:37:31;13.20;99.90
12436;DHT22;6282;51.440;6.938;2022-09-12T02:40:00;13.00;99.90
12436;DHT22;6282;51.440;6.938;2022-09-12T02:42:27;12.90;99.90
12436;DHT22;6282;51.440;6.938;2022-09-12T02:44:56;12.90;99.90
12436;DHT22;6282;51.440;6.938;2022-09-12T02:47:27;12.80;99.90
12436;DHT22;6282;51.440;6.938;2022-09-12T02:49:56;12.90;99.90
12436;DHT22;6282;51.440;6.938;2022-09-12T02:52:23;12.90;99.90
12436;DHT22;6282;51.440;6.938;2022-09-12T02:54:51;12.80;99.90
12436;DHT22;6282;51.440;6.938;2022-09-12T02:57:19;12.80;99.90
12436;DHT22;6282;51.440;6.938;2022-09-12T02:59:47;12.80;99.90
12436;DHT22;6282;51.440;6.938;2022-09-12T03:02:25;12.70;99.90
12436;DHT22;6282;51.440;6.938;2022-09-12T03:05:11;12.60;99.90
12436;DHT22;6282;51.440;6.938;2022-09-12T03:07:55;12.60;99.90
12436;DHT22;6282;51.440;6.938;2022-09-12T03:10:30;12.60;99.90
12436;DHT22;6282;51.440;6.938;2022-09-12T03:13:05;12.70;99.90
12436;DHT22;6282;51.440;6.938;2022-09-12T03:15:42;12.70;99.90
12436;DHT22;6282;51.440;6.938;2022-09-12T03:18:26;12.80;99.90
12436;DHT22;6282;51.440;6.938;2022-09-12T03:21:00;12.70;99.90
12436;DHT22;6282;51.440;6.938;2022-09-12T03:23:31;12.70;99.90
12436;DHT22;6282;51.440;6.938;2022-09-12T03:26:02;12.60;99.90
12436;DHT22;6282;51.440;6.938;2022-09-12T03:28:33;12.50;99.90
12436;DHT22;6282;51.440;6.938;2022-09-12T03:31:11;12.70;99.90
12436;DHT22;6282;51.440;6.938;2022-09-12T03:33:40;12.70;99.90
12436;DHT22;6282;51.440;6.938;2022-09-12T03:36:12;12.60;99.90
12436;DHT22;6282;51.440;6.938;2022-09-12T03:38:40;12.70;99.90
12436;DHT22;6282;51.440;6.938;2022-09-12T03:41:07;12.50;99.90
12436;DHT22;6282;51.440;6.938;2022-09-12T03:43:33;12.60;99.90
12436;DHT22;6282;51.440;6.938;2022-09-12T03:46:00;12.50;99.90
12436;DHT22;6282;51.440;6.938;2022-09-12T03:48:27;12.50;99.90
12436;DHT22;6282;51.440;6.938;2022-09-12T03:51:00;12.50;99.90
12436;DHT22;6282;51.440;6.938;2022-09-12T03:53:27;12.60;99.90
12436;DHT22;6282;51.440;6.938;2022-09-12T03:55:53;12.70;99.90
12436;DHT22;6282;51.440;6.938;2022-09-12T03:58:20;12.60;99.90
12436;DHT22;6282;51.440;6.938;2022-09-12T04:00:47;12.50;99.90
12436;DHT22;6282;51.440;6.938;2022-09-12T04:03:14;12.70;99.90
12436;DHT22;6282;51.440;6.938;2022-09-12T04:05:41;12.80;99.90
12436;DHT22;6282;51.440;6.938;2022-09-12T04:08:09;12.50;99.90
12436;DHT22;6282;51.440;6.938;2022-09-12T04:10:36;12.60;99.90
12436;DHT22;6282;51.440;6.938;2022-09-12T04:13:02;12.70;99.90
12436;DHT22;6282;51.440;6.938;2022-09-12T04:15:29;12.50;99.90
12436;DHT22;6282;51.440;6.938;2022-09-12T04:17:56;12.70;99.90
12436;DHT22;6282;51.440;6.938;2022-09-12T04:20:23;12.60;99.90
12436;DHT22;6282;51.440;6.938;2022-09-12T04:22:50;12.50;99.90
12436;DHT22;6282;51.440;6.938;2022-09-12T04:25:18;12.50;99.90
12436;DHT22;6282;51.440;6.938;2022-09-12T04:27:45;12.60;99.90
12436;DHT22;6282;51.440;6.938;2022-09-12T04:30:12;12.40;99.90
12436;DHT22;6282;51.440;6.938;2022-09-12T04:32:39;12.70;99.90
12436;DHT22;6282;51.440;6.938;2022-09-12T04:35:06;12.50;99.90
12436;DHT22;6282;51.440;6.938;2022-09-12T04:37:33;12.50;99.90
12436;DHT22;6282;51.440;6.938;2022-09-12T04:40:00;12.60;99.90
12436;DHT22;6282;51.440;6.938;2022-09-12T04:42:28;12.60;99.90
12436;DHT22;6282;51.440;6.938;2022-09-12T04:44:55;12.60;99.90
12436;DHT22;6282;51.440;6.938;2022-09-12T04:47:22;12.60;99.90
12436;DHT22;6282;51.440;6.938;2022-09-12T04:49:49;12.60;99.90
12436;DHT22;6282;51.440;6.938;2022-09-12T04:52:16;12.60;99.90
12436;DHT22;6282;51.440;6.938;2022-09-12T04:54:43;12.60;99.90
12436;DHT22;6282;51.440;6.938;2022-09-12T04:57:10;12.60;99.90
12436;DHT22;6282;51.440;6.938;2022-09-12T04:59:39;12.60;99.90
12436;DHT22;6282;51.440;6.938;2022-09-12T05:02:06;12.70;99.90
12436;DHT22;6282;51.440;6.938;2022-09-12T05:04:32;12.60;99.90
12436;DHT22;6282;51.440;6.938;2022-09-12T05:07:00;12.30;99.90
12436;DHT22;6282;51.440;6.938;2022-09-12T05:09:27;12.40;99.90
12436;DHT22;6282;51.440;6.938;2022-09-12T05:11:54;12.60;99.90
12436;DHT22;6282;51.440;6.938;2022-09-12T05:14:21;12.70;99.90
12436;DHT22;6282;51.440;6.938;2022-09-12T05:16:49;12.70;99.90
12436;DHT22;6282;51.440;6.938;2022-09-12T05:19:16;12.70;99.90
12436;DHT22;6282;51.440;6.938;2022-09-12T05:21:43;12.70;99.90
12436;DHT22;6282;51.440;6.938;2022-09-12T05:24:10;12.80;99.90
12436;DHT22;6282;51.440;6.938;2022-09-12T05:26:37;12.80;99.90
12436;DHT22;6282;51.440;6.938;2022-09-12T05:29:04;12.70;99.90
12436;DHT22;6282;51.440;6.938;2022-09-12T05:31:31;12.90;99.90
12436;DHT22;6282;51.440;6.938;2022-09-12T05:34:00;12.80;99.90
12436;DHT22;6282;51.440;6.938;2022-09-12T05:36:30;12.90;99.90
12436;DHT22;6282;51.440;6.938;2022-09-12T05:38:58;12.90;99.90
12436;DHT22;6282;51.440;6.938;2022-09-12T05:41:27;13.00;99.90
12436;DHT22;6282;51.440;6.938;2022-09-12T05:43:56;13.20;99.90
12436;DHT22;6282;51.440;6.938;2022-09-12T05:46:25;13.20;99.90
12436;DHT22;6282;51.440;6.938;2022-09-12T05:48:53;13.30;99.90
12436;DHT22;6282;51.440;6.938;2022-09-12T05:51:22;13.50;99.90
12436;DHT22;6282;51.440;6.938;2022-09-12T05:53:51;13.50;99.90
12436;DHT22;6282;51.440;6.938;2022-09-12T05:56:20;13.60;99.90
12436;DHT22;6282;51.440;6.938;2022-09-12T05:58:51;13.60;99.90
12436;DHT22;6282;51.440;6.938;2022-09-12T06:01:19;13.70;99.90
12436;DHT22;6282;51.440;6.938;2022-09-12T06:03:48;13.90;99.90
12436;DHT22;6282;51.440;6.938;2022-09-12T06:06:17;14.10;99.90
12436;DHT22;6282;51.440;6.938;2022-09-12T06:08:47;14.00;99.90
12436;DHT22;6282;51.440;6.938;2022-09-12T06:11:16;14.00;99.90
12436;DHT22;6282;51.440;6.938;2022-09-12T06:13:43;14.20;99.90
12436;DHT22;6282;51.440;6.938;2022-09-12T06:16:12;14.30;99.90
12436;DHT22;6282;51.440;6.938;2022-09-12T06:18:39;14.30;99.90
12436;DHT22;6282;51.440;6.938;2022-09-12T06:21:08;14.40;99.90
12436;DHT22;6282;51.440;6.938;2022-09-12T06:23:36;14.50;99.90
12436;DHT22;6282;51.440;6.938;2022-09-12T06:26:05;14.60;99.90
12436;DHT22;6282;51.440;6.938;2022-09-12T06:28:35;14.70;99.90
12436;DHT22;6282;51.440;6.938;2022-09-12T06:31:03;14.60;99.90
12436;DHT22;6282;51.440;6.938;2022-09-12T06:33:31;14.70;99.90
12436;DHT22;6282;51.440;6.938;2022-09-12T06:36:03;14.90;99.90
12436;DHT22;6282;51.440;6.938;2022-09-12T06:38:30;15.00;99.90
12436;DHT22;6282;51.440;6.938;2022-09-12T06:40:56;15.60;99.90
12436;DHT22;6282;51.440;6.938;2022-09-12T06:43:27;16.70;99.90
12436;DHT22;6282;51.440;6.938;2022-09-12T06:45:54;17.20;99.90
12436;DHT22;6282;51.440;6.938;2022-09-12T06:48:20;17.70;99.90
12436;DHT22;6282;51.440;6.938;2022-09-12T06:50:54;18.10;99.90
12436;DHT22;6282;51.440;6.938;2022-09-12T06:53:22;18.70;99.90
12436;DHT22;6282;51.440;6.938;2022-09-12T06:55:54;18.90;99.90
12436;DHT22;6282;51.440;6.938;2022-09-12T06:58:21;18.50;99.90
12436;DHT22;6282;51.440;6.938;2022-09-12T07:00:49;18.40;99.90
12436;DHT22;6282;51.440;6.938;2022-09-12T07:03:16;18.40;99.90
12436;DHT22;6282;51.440;6.938;2022-09-12T07:05:44;18.30;99.90
12436;DHT22;6282;51.440;6.938;2022-09-12T07:08:11;18.20;99.90
12436;DHT22;6282;51.440;6.938;2022-09-12T07:10:37;17.80;99.90
12436;DHT22;6282;51.440;6.938;2022-09-12T07:13:04;17.90;99.90
12436;DHT22;6282;51.440;6.938;2022-09-12T07:15:33;17.90;99.90
12436;DHT22;6282;51.440;6.938;2022-09-12T07:18:02;17.80;99.90
12436;DHT22;6282;51.440;6.938;2022-09-12T07:20:28;17.80;99.90
12436;DHT22;6282;51.440;6.938;2022-09-12T07:22:57;17.80;99.90
12436;DHT22;6282;51.440;6.938;2022-09-12T07:25:24;17.80;99.90
12436;DHT22;6282;51.440;6.938;2022-09-12T07:27:51;17.70;99.90
12436;DHT22;6282;51.440;6.938;2022-09-12T07:30:18;17.80;99.90
12436;DHT22;6282;51.440;6.938;2022-09-12T07:32:45;17.80;99.90
12436;DHT22;6282;51.440;6.938;2022-09-12T07:35:13;17.80;99.90
12436;DHT22;6282;51.440;6.938;2022-09-12T07:37:40;17.80;99.90
12436;DHT22;6282;51.440;6.938;2022-09-12T07:40:07;17.80;99.90
12436;DHT22;6282;51.440;6.938;2022-09-12T07:42:34;17.60;99.90
12436;DHT22;6282;51.440;6.938;2022-09-12T07:45:02;17.40;99.90
12436;DHT22;6282;51.440;6.938;2022-09-12T07:47:29;17.40;99.90
12436;DHT22;6282;51.440;6.938;2022-09-12T07:49:55;17.40;99.90
12436;DHT22;6282;51.440;6.938;2022-09-12T07:52:24;17.50;99.90
12436;DHT22;6282;51.440;6.938;2022-09-12T07:54:51;17.60;99.90
12436;DHT22;6282;51.440;6.938;2022-09-12T07:57:17;17.90;99.90
12436;DHT22;6282;51.440;6.938;2022-09-12T07:59:44;18.00;99.90
12436;DHT22;6282;51.440;6.938;2022-09-12T08:02:11;18.10;99.90
12436;DHT22;6282;51.440;6.938;2022-09-12T08:04:39;18.10;99.90
12436;DHT22;6282;51.440;6.938;2022-09-12T08:07:06;18.30;99.90
12436;DHT22;6282;51.440;6.938;2022-09-12T08:09:35;18.40;99.90
12436;DHT22;6282;51.440;6.938;2022-09-12T08:12:02;18.60;99.90
12436;DHT22;6282;51.440;6.938;2022-09-12T08:14:29;18.40;99.90
12436;DHT22;6282;51.440;6.938;2022-09-12T08:16:55;18.30;99.90
12436;DHT22;6282;51.440;6.938;2022-09-12T08:19:22;18.70;99.90
12436;DHT22;6282;51.440;6.938;2022-09-12T08:21:49;18.80;99.90
12436;DHT22;6282;51.440;6.938;2022-09-12T08:24:16;18.90;99.90
12436;DHT22;6282;51.440;6.938;2022-09-12T08:26:44;18.80;99.90
12436;DHT22;6282;51.440;6.938;2022-09-12T08:29:11;19.00;99.90
12436;DHT22;6282;51.440;6.938;2022-09-12T08:31:38;19.40;99.90
12436;DHT22;6282;51.440;6.938;2022-09-12T08:34:07;19.70;99.90
12436;DHT22;6282;51.440;6.938;2022-09-12T08:36:34;20.00;99.90
12436;DHT22;6282;51.440;6.938;2022-09-12T08:39:03;20.20;99.90
12436;DHT22;6282;51.440;6.938;2022-09-12T08:41:31;20.20;99.90
12436;DHT22;6282;51.440;6.938;2022-09-12T08:47:21;20.50;99.90
12436;DHT22;6282;51.440;6.938;2022-09-12T08:49:58;20.30;99.90
12436;DHT22;6282;51.440;6.938;2022-09-12T08:52:30;20.40;99.90
12436;DHT22;6282;51.440;6.938;2022-09-12T08:55:00;20.40;99.90
12436;DHT22;6282;51.440;6.938;2022-09-12T08:57:27;20.90;99.90
12436;DHT22;6282;51.440;6.938;2022-09-12T08:59:55;21.00;99.90
12436;DHT22;6282;51.440;6.938;2022-09-12T09:05:44;20.30;99.90
12436;DHT22;6282;51.440;6.938;2022-09-12T09:08:34;20.30;99.90
12436;DHT22;6282;51.440;6.938;2022-09-12T09:11:20;20.00;99.90
12436;DHT22;6282;51.440;6.938;2022-09-12T09:13:57;19.90;99.90
12436;DHT22;6282;51.440;6.938;2022-09-12T09:16:49;19.80;99.90
12436;DHT22;6282;51.440;6.938;2022-09-12T09:19:20;20.00;99.90
12436;DHT22;6282;51.440;6.938;2022-09-12T09:21:50;20.40;99.90
12436;DHT22;6282;51.440;6.938;2022-09-12T09:24:22;20.30;99.90
12436;DHT22;6282;51.440;6.938;2022-09-12T09:26:53;20.40;99.90
12436;DHT22;6282;51.440;6.938;2022-09-12T09:29:23;20.70;99.90
12436;DHT22;6282;51.440;6.938;2022-09-12T09:31:55;20.70;99.90
12436;DHT22;6282;51.440;6.938;2022-09-12T09:34:26;20.60;99.90
12436;DHT22;6282;51.440;6.938;2022-09-12T09:36:58;20.90;99.90
12436;DHT22;6282;51.440;6.938;2022-09-12T09:39:43;21.00;99.90
12436;DHT22;6282;51.440;6.938;2022-09-12T09:42:24;20.90;99.90
12436;DHT22;6282;51.440;6.938;2022-09-12T09:44:55;20.70;99.90
12436;DHT22;6282;51.440;6.938;2022-09-12T09:47:25;20.80;99.90
12436;DHT22;6282;51.440;6.938;2022-09-12T09:49:52;21.00;99.90
12436;DHT22;6282;51.440;6.938;2022-09-12T09:52:23;20.90;99.90
12436;DHT22;6282;51.440;6.938;2022-09-12T09:54:55;21.00;99.90
12436;DHT22;6282;51.440;6.938;2022-09-12T09:57:40;20.90;99.90
12436;DHT22;6282;51.440;6.938;2022-09-12T10:00:35;20.80;1.00
12436;DHT22;6282;51.440;6.938;2022-09-12T10:03:20;20.80;99.90
12436;DHT22;6282;51.440;6.938;2022-09-12T10:05:51;20.80;1.00
12436;DHT22;6282;51.440;6.938;2022-09-12T10:08:23;21.00;99.90
12436;DHT22;6282;51.440;6.938;2022-09-12T10:10:53;21.10;31.80
12436;DHT22;6282;51.440;6.938;2022-09-12T10:13:24;21.10;1.00
12436;DHT22;6282;51.440;6.938;2022-09-12T10:15:58;21.30;1.00
12436;DHT22;6282;51.440;6.938;2022-09-12T10:18:40;21.30;44.80
12436;DHT22;6282;51.440;6.938;2022-09-12T10:24:05;21.50;99.90
12436;DHT22;6282;51.440;6.938;2022-09-12T10:26:39;21.40;99.90
12436;DHT22;6282;51.440;6.938;2022-09-12T10:29:14;21.30;1.00
12436;DHT22;6282;51.440;6.938;2022-09-12T10:31:46;21.70;1.00
12436;DHT22;6282;51.440;6.938;2022-09-12T10:34:23;21.70;1.00
12436;DHT22;6282;51.440;6.938;2022-09-12T10:36:54;21.70;1.00
12436;DHT22;6282;51.440;6.938;2022-09-12T10:39:24;21.60;1.00
12436;DHT22;6282;51.440;6.938;2022-09-12T10:41:51;21.80;99.90
12436;DHT22;6282;51.440;6.938;2022-09-12T10:44:24;21.70;25.20
12436;DHT22;6282;51.440;6.938;2022-09-12T10:46:52;21.70;99.90
12436;DHT22;6282;51.440;6.938;2022-09-12T10:49:24;22.00;1.00
12436;DHT22;6282;51.440;6.938;2022-09-12T10:51:52;21.90;99.90
12436;DHT22;6282;51.440;6.938;2022-09-12T10:54:22;21.80;99.90
12436;DHT22;6282;51.440;6.938;2022-09-12T10:57:12;21.80;99.90
12436;DHT22;6282;51.440;6.938;2022-09-12T10:59:56;21.90;99.90
12436;DHT22;6282;51.440;6.938;2022-09-12T11:02:27;22.00;1.00
12436;DHT22;6282;51.440;6.938;2022-09-12T11:05:02;21.90;1.00
12436;DHT22;6282;51.440;6.938;2022-09-12T11:07:42;22.00;1.00
12436;DHT22;6282;51.440;6.938;2022-09-12T11:13:13;22.20;1.00
12436;DHT22;6282;51.440;6.938;2022-09-12T11:15:55;22.20;1.00
12436;DHT22;6282;51.440;6.938;2022-09-12T11:18:34;22.30;1.00
12436;DHT22;6282;51.440;6.938;2022-09-12T11:21:14;22.40;1.00
12436;DHT22;6282;51.440;6.938;2022-09-12T11:24:05;22.50;99.90
12436;DHT22;6282;51.440;6.938;2022-09-12T11:26:49;22.40;99.90
12436;DHT22;6282;51.440;6.938;2022-09-12T11:29:24;22.40;99.90
12436;DHT22;6282;51.440;6.938;2022-09-12T11:32:09;22.20;99.90
12436;DHT22;6282;51.440;6.938;2022-09-12T11:34:45;22.40;99.90
12436;DHT22;6282;51.440;6.938;2022-09-12T11:37:29;22.20;99.90
12436;DHT22;6282;51.440;6.938;2022-09-12T11:40:04;22.30;99.90
12436;DHT22;6282;51.440;6.938;2022-09-12T11:42:36;22.50;99.90
12436;DHT22;6282;51.440;6.938;2022-09-12T11:45:24;22.50;52.70
12436;DHT22;6282;51.440;6.938;2022-09-12T11:47:54;22.50;4.80
12436;DHT22;6282;51.440;6.938;2022-09-12T11:50:26;22.50;17.10
12436;DHT22;6282;51.440;6.938;2022-09-12T11:52:59;22.40;1.00
12436;DHT22;6282;51.440;6.938;2022-09-12T11:55:33;22.70;1.00
12436;DHT22;6282;51.440;6.938;2022-09-12T11:58:02;22.40;1.00
12436;DHT22;6282;51.440;6.938;2022-09-12T12:00:32;22.50;1.00
12436;DHT22;6282;51.440;6.938;2022-09-12T12:03:06;22.70;1.00
12436;DHT22;6282;51.440;6.938;2022-09-12T12:05:39;23.00;1.00
12436;DHT22;6282;51.440;6.938;2022-09-12T12:08:10;22.70;1.00
12436;DHT22;6282;51.440;6.938;2022-09-12T12:10:39;22.80;1.00
12436;DHT22;6282;51.440;6.938;2022-09-12T12:13:13;23.00;1.00
12436;DHT22;6282;51.440;6.938;2022-09-12T12:15:45;22.90;1.00
12436;DHT22;6282;51.440;6.938;2022-09-12T12:18:16;22.90;1.00
12436;DHT22;6282;51.440;6.938;2022-09-12T12:20:44;23.20;1.00
12436;DHT22;6282;51.440;6.938;2022-09-12T12:23:23;23.00;1.00
12436;DHT22;6282;51.440;6.938;2022-09-12T12:25:53;23.30;1.00
12436;DHT22;6282;51.440;6.938;2022-09-12T12:28:59;23.20;1.00
12436;DHT22;6282;51.440;6.938;2022-09-12T12:31:26;23.10;1.00
12436;DHT22;6282;51.440;6.938;2022-09-12T12:34:19;23.00;1.00
12436;DHT22;6282;51.440;6.938;2022-09-12T12:36:47;23.10;1.00
12436;DHT22;6282;51.440;6.938;2022-09-12T12:48:56;23.30;99.90
12436;DHT22;6282;51.440;6.938;2022-09-12T12:51:47;23.20;99.90
12436;DHT22;6282;51.440;6.938;2022-09-12T12:57:45;23.20;99.90
12436;DHT22;6282;51.440;6.938;2022-09-12T13:00:30;23.30;99.90
12436;DHT22;6282;51.440;6.938;2022-09-12T13:03:09;23.30;99.90
12436;DHT22;6282;51.440;6.938;2022-09-12T13:05:39;23.30;99.90
12436;DHT22;6282;51.440;6.938;2022-09-12T13:08:09;23.30;99.90
12436;DHT22;6282;51.440;6.938;2022-09-12T13:10:37;23.80;99.90
12436;DHT22;6282;51.440;6.938;2022-09-12T13:13:21;23.40;99.90
12436;DHT22;6282;51.440;6.938;2022-09-12T13:15:50;23.60;99.90
12436;DHT22;6282;51.440;6.938;2022-09-12T13:18:27;23.60;99.90
12436;DHT22;6282;51.440;6.938;2022-09-12T13:21:04;23.30;99.90
12436;DHT22;6282;51.440;6.938;2022-09-12T13:23:33;23.40;99.90
12436;DHT22;6282;51.440;6.938;2022-09-12T13:26:01;23.30;99.90
12436;DHT22;6282;51.440;6.938;2022-09-12T13:28:30;23.10;99.90
12436;DHT22;6282;51.440;6.938;2022-09-12T13:31:01;23.20;99.90
12436;DHT22;6282;51.440;6.938;2022-09-12T13:33:34;23.30;99.90
12436;DHT22;6282;51.440;6.938;2022-09-12T13:36:45;23.40;98.60
12436;DHT22;6282;51.440;6.938;2022-09-12T13:39:18;23.20;99.90
12436;DHT22;6282;51.440;6.938;2022-09-12T13:44:48;23.30;49.70
12436;DHT22;6282;51.440;6.938;2022-09-12T13:47:23;23.20;33.40
12436;DHT22;6282;51.440;6.938;2022-09-12T13:49:53;23.30;41.40
12436;DHT22;6282;51.440;6.938;2022-09-12T13:52:23;23.30;25.80
12436;DHT22;6282;51.440;6.938;2022-09-12T13:54:55;23.30;21.90
12436;DHT22;6282;51.440;6.938;2022-09-12T13:57:30;23.50;13.80
12436;DHT22;6282;51.440;6.938;2022-09-12T13:59:59;23.40;1.00
12436;DHT22;6282;51.440;6.938;2022-09-12T14:02:29;23.50;1.00
12436;DHT22;6282;51.440;6.938;2022-09-12T14:04:57;23.40;1.00
12436;DHT22;6282;51.440;6.938;2022-09-12T14:07:37;23.40;1.00
12436;DHT22;6282;51.440;6.938;2022-09-12T14:10:16;23.40;1.00
12436;DHT22;6282;51.440;6.938;2022-09-12T14:12:45;23.50;1.00
12436;DHT22;6282;51.440;6.938;2022-09-12T14:15:16;23.50;1.00
12436;DHT22;6282;51.440;6.938;2022-09-12T14:17:48;23.40;1.00
12436;DHT22;6282;51.440;6.938;2022-09-12T14:20:20;23.40;1.00
12436;DHT22;6282;51.440;6.938;2022-09-12T14:22:48;23.60;1.00
12436;DHT22;6282;51.440;6.938;2022-09-12T14:25:19;23.60;1.00
12436;DHT22;6282;51.440;6.938;2022-09-12T14:27:50;23.60;1.00
12436;DHT22;6282;51.440;6.938;2022-09-12T14:30:22;23.50;1.00
12436;DHT22;6282;51.440;6.938;2022-09-12T14:33:15;23.50;1.00
12436;DHT22;6282;51.440;6.938;2022-09-12T14:35:45;23.50;1.00
12436;DHT22;6282;51.440;6.938;2022-09-12T14:38:21;23.50;1.00
12436;DHT22;6282;51.440;6.938;2022-09-12T14:40:51;23.70;1.00
12436;DHT22;6282;51.440;6.938;2022-09-12T14:43:26;23.80;1.00
12436;DHT22;6282;51.440;6.938;2022-09-12T14:45:56;23.70;1.00
12436;DHT22;6282;51.440;6.938;2022-09-12T14:48:25;23.80;1.00
12436;DHT22;6282;51.440;6.938;2022-09-12T14:50:58;23.70;1.00
12436;DHT22;6282;51.440;6.938;2022-09-12T14:53:30;23.40;1.00
12436;DHT22;6282;51.440;6.938;2022-09-12T14:56:06;23.40;1.00
12436;DHT22;6282;51.440;6.938;2022-09-12T14:58:33;23.50;1.00
12436;DHT22;6282;51.440;6.938;2022-09-12T15:01:02;23.60;1.00
12436;DHT22;6282;51.440;6.938;2022-09-12T15:03:31;23.50;1.00
12436;DHT22;6282;51.440;6.938;2022-09-12T15:06:01;23.50;1.00
12436;DHT22;6282;51.440;6.938;2022-09-12T15:08:29;23.50;1.00
12436;DHT22;6282;51.440;6.938;2022-09-12T15:10:57;23.40;1.00
12436;DHT22;6282;51.440;6.938;2022-09-12T15:13:25;23.40;1.00
12436;DHT22;6282;51.440;6.938;2022-09-12T15:15:54;23.40;1.00
12436;DHT22;6282;51.440;6.938;2022-09-12T15:18:22;23.60;1.00
12436;DHT22;6282;51.440;6.938;2022-09-12T15:20:50;23.60;1.00
12436;DHT22;6282;51.440;6.938;2022-09-12T15:23:31;23.40;1.00
12436;DHT22;6282;51.440;6.938;2022-09-12T15:26:00;23.30;1.00
12436;DHT22;6282;51.440;6.938;2022-09-12T15:28:28;23.30;1.00
12436;DHT22;6282;51.440;6.938;2022-09-12T15:30:56;23.20;1.00
12436;DHT22;6282;51.440;6.938;2022-09-12T15:33:24;23.20;1.00
12436;DHT22;6282;51.440;6.938;2022-09-12T15:35:51;23.20;1.00
12436;DHT22;6282;51.440;6.938;2022-09-12T15:38:20;23.20;1.00
12436;DHT22;6282;51.440;6.938;2022-09-12T15:40:49;23.20;1.00
12436;DHT22;6282;51.440;6.938;2022-09-12T15:43:19;23.20;1.00
12436;DHT22;6282;51.440;6.938;2022-09-12T15:45:47;23.30;1.00
12436;DHT22;6282;51.440;6.938;2022-09-12T15:48:17;23.30;1.00
12436;DHT22;6282;51.440;6.938;2022-09-12T15:50:44;23.30;1.00
12436;DHT22;6282;51.440;6.938;2022-09-12T15:53:13;23.20;1.00
12436;DHT22;6282;51.440;6.938;2022-09-12T15:55:42;23.20;1.00
12436;DHT22;6282;51.440;6.938;2022-09-12T15:58:10;23.20;1.00
12436;DHT22;6282;51.440;6.938;2022-09-12T16:00:38;23.10;1.00
12436;DHT22;6282;51.440;6.938;2022-09-12T16:03:05;23.10;1.00
12436;DHT22;6282;51.440;6.938;2022-09-12T16:05:31;23.00;1.00
12436;DHT22;6282;51.440;6.938;2022-09-12T16:07:58;23.00;1.00
12436;DHT22;6282;51.440;6.938;2022-09-12T16:10:27;22.90;1.00
12436;DHT22;6282;51.440;6.938;2022-09-12T16:12:57;22.90;1.00
12436;DHT22;6282;51.440;6.938;2022-09-12T16:15:24;22.80;1.00
12436;DHT22;6282;51.440;6.938;2022-09-12T16:17:52;22.70;1.00
12436;DHT22;6282;51.440;6.938;2022-09-12T16:20:19;22.60;1.00
12436;DHT22;6282;51.440;6.938;2022-09-12T16:22:46;22.60;1.00
12436;DHT22;6282;51.440;6.938;2022-09-12T16:25:13;22.60;1.00
12436;DHT22;6282;51.440;6.938;2022-09-12T16:27:40;22.60;1.00
12436;DHT22;6282;51.440;6.938;2022-09-12T16:30:09;22.70;1.00
12436;DHT22;6282;51.440;6.938;2022-09-12T16:32:36;22.60;1.00
12436;DHT22;6282;51.440;6.938;2022-09-12T16:35:04;22.70;1.00
12436;DHT22;6282;51.440;6.938;2022-09-12T16:37:31;22.80;1.00
12436;DHT22;6282;51.440;6.938;2022-09-12T16:39:59;22.80;1.00
12436;DHT22;6282;51.440;6.938;2022-09-12T16:42:26;22.70;16.80
12436;DHT22;6282;51.440;6.938;2022-09-12T16:44:52;22.70;1.00
12436;DHT22;6282;51.440;6.938;2022-09-12T16:47:20;22.60;99.90